Time;durP1;ratioP1;P1;durP2;ratioP2;P2;SDS_P1;SDS_P2;PMS_P1;PMS_P2;Temp;Humidity;BMP_temperature;BMP_pressure;BME280_temperature;BME280_humidity;BME280_pressure;Samples;Min_cycle;Max_cycle;Signal;HPM_P1;HPM_P2
2023/04/01 00:00:31;;;;;;;6.18;3.25;;;;;;;;;;5045761;28;20041;-58
2023/04/01 00:02:57;;;;;;;6.05;3.40;;;;;;;;;;5045928;28;20053;-59
2023/04/01 00:05:25;;;;;;;8.15;3.53;;;;;;;;;;5045544;28;20103;-58
2023/04/01 00:07:51;;;;;;;6.35;3.28;;;;;;;;;;5045763;28;20124;-58
2023/04/01 00:10:18;;;;;;;11.13;3.88;;;;;;;;;;5045056;28;20506;-59
2023/04/01 00:12:44;;;;;;;6.80;3.60;;;;;;;;;;5045406;28;20156;-59
2023/04/01 00:15:11;;;;;;;5.75;3.50;;;;;;;;;;5045747;28;20061;-59
2023/04/01 00:17:37;;;;;;;6.22;2.97;;;;;;;;;;5045101;28;20036;-60
2023/04/01 00:20:04;;;;;;;6.68;3.25;;;;;;;;;;5045643;28;20075;-59
2023/04/01 00:22:31;;;;;;;6.13;3.47;;;;;;;;;;5045162;28;20402;-59
2023/04/01 00:24:57;;;;;;;6.15;3.40;;;;;;;;;;5045643;28;20071;-59
2023/04/01 00:27:23;;;;;;;5.30;3.22;;;;;;;;;;5044543;28;20040;-59
2023/04/01 00:29:49;;;;;;;6.38;3.30;;;;;;;;;;5045341;28;20094;-59
2023/04/01 00:32:15;;;;;;;4.40;2.80;;;;;;;;;;5043951;28;20514;-59
2023/04/01 00:34:41;;;;;;;4.60;3.03;;;;;;;;;;5044714;28;20048;-59
2023/04/01 00:37:08;;;;;;;6.32;3.10;;;;;;;;;;5045314;28;20811;-59
2023/04/01 00:39:35;;;;;;;5.82;2.97;;;;;;;;;;5045079;28;20539;-58
2023/04/01 00:42:01;;;;;;;3.80;2.38;;;;;;;;;;5044452;28;20509;-58
2023/04/01 00:44:29;;;;;;;4.63;2.58;;;;;;;;;;5045206;28;20049;-59
2023/04/01 00:46:55;;;;;;;5.97;2.95;;;;;;;;;;5045409;28;20133;-58
2023/04/01 00:49:25;;;;;;;5.72;2.45;;;;;;;;;;5043816;28;20056;-58
2023/04/01 00:51:53;;;;;;;4.10;2.47;;;;;;;;;;5045373;28;20052;-59
2023/04/01 00:54:21;;;;;;;3.58;2.13;;;;;;;;;;5045473;28;20467;-58
2023/04/01 00:56:49;;;;;;;5.00;2.50;;;;;;;;;;5043421;28;20049;-59
2023/04/01 00:59:19;;;;;;;5.88;2.00;;;;;;;;;;5045640;28;20046;-58
2023/04/01 01:01:45;;;;;;;4.45;2.17;;;;;;;;;;5045294;28;20047;-59
2023/04/01 01:04:21;;;;;;;3.22;1.83;;;;;;;;;;5044922;28;20075;-58
2023/04/01 01:06:58;;;;;;;4.47;1.27;;;;;;;;;;5044941;28;20490;-59
2023/04/01 01:09:32;;;;;;;3.17;1.63;;;;;;;;;;5045176;28;20585;-59
2023/04/01 01:12:04;;;;;;;4.38;1.70;;;;;;;;;;5043831;28;20061;-59
2023/04/01 01:14:34;;;;;;;2.92;1.63;;;;;;;;;;5043375;28;20079;-58
2023/04/01 01:17:07;;;;;;;5.07;1.88;;;;;;;;;;5044636;28;20041;-58
2023/04/01 01:19:53;;;;;;;3.72;1.75;;;;;;;;;;5044568;28;20041;-58
2023/04/01 01:22:19;;;;;;;4.07;1.65;;;;;;;;;;5045067;28;20045;-58
2023/04/01 01:24:54;;;;;;;2.55;1.23;;;;;;;;;;5045300;28;20066;-58
2023/04/01 01:27:21;;;;;;;2.97;1.27;;;;;;;;;;5044381;28;20509;-58
2023/04/01 01:29:53;;;;;;;4.40;1.50;;;;;;;;;;5047374;28;20081;-59
2023/04/01 01:32:31;;;;;;;2.75;0.90;;;;;;;;;;5048260;28;20115;-58
2023/04/01 01:35:24;;;;;;;1.70;1.00;;;;;;;;;;5048240;28;20099;-58
2023/04/01 01:37:52;;;;;;;3.75;0.70;;;;;;;;;;5048016;28;20490;-58
2023/04/01 01:40:19;;;;;;;;;;;;;;;;;;5047220;28;20044;-59
2023/04/01 01:42:47;;;;;;;2.08;0.98;;;;;;;;;;5048608;28;20056;-58
2023/04/01 01:45:17;;;;;;;1.75;1.15;;;;;;;;;;5048859;28;20542;-59
2023/04/01 01:47:44;;;;;;;1.85;1.20;;;;;;;;;;5048347;28;20072;-58
2023/04/01 01:50:11;;;;;;;3.08;1.05;;;;;;;;;;5047951;28;20061;-58
2023/04/01 01:52:37;;;;;;;2.28;1.25;;;;;;;;;;5047773;28;20093;-59
2023/04/01 01:55:04;;;;;;;4.00;1.52;;;;;;;;;;5047326;28;20425;-58
2023/04/01 01:57:33;;;;;;;2.67;1.67;;;;;;;;;;5046602;28;20048;-58
2023/04/01 02:00:02;;;;;;;2.65;1.40;;;;;;;;;;5048117;28;20041;-59
2023/04/01 02:02:31;;;;;;;4.57;2.08;;;;;;;;;;5047374;28;20045;-58
2023/04/01 02:04:57;;;;;;;4.18;2.17;;;;;;;;;;5047670;28;20147;-58
2023/04/01 02:07:25;;;;;;;4.78;2.20;;;;;;;;;;5047281;28;20596;-58
2023/04/01 02:09:52;;;;;;;6.47;2.30;;;;;;;;;;5047117;28;20097;-58
2023/04/01 02:12:19;;;;;;;4.15;2.30;;;;;;;;;;5047477;28;20052;-58
2023/04/01 02:14:50;;;;;;;5.47;2.50;;;;;;;;;;5047941;28;20053;-58
2023/04/01 02:17:18;;;;;;;5.43;2.65;;;;;;;;;;5048018;28;20773;-57
2023/04/01 02:19:55;;;;;;;6.67;2.50;;;;;;;;;;5048020;28;20521;-57
2023/04/01 02:22:23;;;;;;;4.40;2.40;;;;;;;;;;5046862;28;20045;-57
2023/04/01 02:24:51;;;;;;;4.68;2.33;;;;;;;;;;5045547;28;20041;-57
2023/04/01 02:27:17;;;;;;;4.88;2.97;;;;;;;;;;5047739;28;20044;-58
2023/04/01 02:29:43;;;;;;;4.97;2.70;;;;;;;;;;5047374;28;20044;-57
2023/04/01 02:32:10;;;;;;;5.32;3.20;;;;;;;;;;5047109;28;20107;-58
2023/04/01 02:34:37;;;;;;;6.65;2.88;;;;;;;;;;5046996;28;20045;-57
2023/04/01 02:37:03;;;;;;;8.32;2.95;;;;;;;;;;5047400;28;20041;-58
2023/04/01 02:39:29;;;;;;;6.28;2.95;;;;;;;;;;5046533;28;20116;-58
2023/04/01 02:41:55;;;;;;;7.22;2.95;;;;;;;;;;5045509;28;20045;-58
2023/04/01 02:44:22;;;;;;;5.20;3.20;;;;;;;;;;5047148;28;20048;-58
2023/04/01 02:46:48;;;;;;;7.20;3.42;;;;;;;;;;5047136;28;20399;-58
2023/04/01 02:49:14;;;;;;;7.53;3.55;;;;;;;;;;5047115;28;20041;-60
2023/04/01 02:51:40;;;;;;;5.82;3.08;;;;;;;;;;5046757;28;20044;-58
2023/04/01 02:54:06;;;;;;;6.07;3.40;;;;;;;;;;5046808;28;20427;-58
2023/04/01 02:56:32;;;;;;;6.68;3.22;;;;;;;;;;5045590;28;20414;-59
2023/04/01 02:58:59;;;;;;;5.97;3.08;;;;;;;;;;5046731;28;20047;-58
2023/04/01 03:01:25;;;;;;;7.78;3.45;;;;;;;;;;5045867;28;20041;-62
2023/04/01 03:03:51;;;;;;;5.30;3.45;;;;;;;;;;5046396;28;20747;-58
2023/04/01 03:06:18;;;;;;;6.95;3.72;;;;;;;;;;5046528;28;20045;-59
2023/04/01 03:08:44;;;;;;;6.57;3.63;;;;;;;;;;5046727;28;20525;-58
2023/04/01 03:11:11;;;;;;;8.15;4.13;;;;;;;;;;5045760;28;20061;-59
2023/04/01 03:13:37;;;;;;;6.80;3.33;;;;;;;;;;5046216;28;20147;-59
2023/04/01 03:16:03;;;;;;;6.85;3.50;;;;;;;;;;5045431;28;20049;-59
2023/04/01 03:18:30;;;;;;;6.57;3.88;;;;;;;;;;5046075;28;20049;-58
2023/04/01 03:20:56;;;;;;;6.30;3.78;;;;;;;;;;5046263;28;20052;-58
2023/04/01 03:23:24;;;;;;;8.70;3.53;;;;;;;;;;5045091;28;20045;-58
2023/04/01 03:25:50;;;;;;;6.60;3.27;;;;;;;;;;5045553;28;20060;-59
2023/04/01 03:28:16;;;;;;;5.85;3.50;;;;;;;;;;5046542;28;20067;-58
2023/04/01 03:30:42;;;;;;;6.82;3.50;;;;;;;;;;5045711;28;20053;-59
2023/04/01 03:33:08;;;;;;;6.28;3.30;;;;;;;;;;5046283;28;20045;-58
2023/04/01 03:35:35;;;;;;;5.07;3.13;;;;;;;;;;5046103;28;20056;-58
2023/04/01 03:38:02;;;;;;;8.32;3.20;;;;;;;;;;5045365;28;20482;-58
2023/04/01 03:40:28;;;;;;;7.45;3.38;;;;;;;;;;5044835;28;20049;-58
2023/04/01 03:42:55;;;;;;;6.32;3.13;;;;;;;;;;5045846;28;20106;-58
2023/04/01 03:45:22;;;;;;;6.35;3.10;;;;;;;;;;5045850;28;20102;-58
2023/04/01 03:47:48;;;;;;;5.68;3.33;;;;;;;;;;5045967;28;20055;-59
2023/04/01 03:50:14;;;;;;;5.82;3.15;;;;;;;;;;5045104;28;20045;-58
2023/04/01 03:52:40;;;;;;;6.18;3.20;;;;;;;;;;5045291;28;20118;-58
2023/04/01 03:55:06;;;;;;;8.10;3.08;;;;;;;;;;5044492;28;20524;-58
2023/04/01 03:57:33;;;;;;;5.90;3.42;;;;;;;;;;5045411;28;20080;-58
2023/04/01 03:59:59;;;;;;;6.78;3.55;;;;;;;;;;5044031;28;20069;-59
2023/04/01 04:02:25;;;;;;;6.65;2.90;;;;;;;;;;5045534;28;20048;-61
2023/04/01 04:04:51;;;;;;;5.55;3.08;;;;;;;;;;5045494;28;20087;-58
2023/04/01 04:07:17;;;;;;;5.50;3.03;;;;;;;;;;5046069;28;20510;-59
2023/04/01 04:09:44;;;;;;;5.28;3.00;;;;;;;;;;5044576;28;20569;-58
2023/04/01 04:12:10;;;;;;;7.32;3.08;;;;;;;;;;5044009;28;20068;-59
2023/04/01 04:14:36;;;;;;;5.53;2.97;;;;;;;;;;5045478;28;20464;-59
2023/04/01 04:17:02;;;;;;;6.40;2.83;;;;;;;;;;5045294;28;20128;-59
2023/04/01 04:19:34;;;;;;;5.57;2.63;;;;;;;;;;5045131;28;20135;-60
2023/04/01 04:22:01;;;;;;;8.85;3.40;;;;;;;;;;5045451;28;20494;-59
2023/04/01 04:24:27;;;;;;;5.28;2.78;;;;;;;;;;5044598;28;20049;-59
2023/04/01 04:26:53;;;;;;;4.60;2.85;;;;;;;;;;5045521;28;20442;-58
2023/04/01 04:29:19;;;;;;;4.75;2.58;;;;;;;;;;5045261;28;20427;-59
2023/04/01 04:31:45;;;;;;;7.03;3.28;;;;;;;;;;5045562;28;20056;-58
2023/04/01 04:34:12;;;;;;;6.47;3.22;;;;;;;;;;5045260;28;20037;-59
2023/04/01 04:36:38;;;;;;;5.07;2.70;;;;;;;;;;5043354;28;20139;-59
2023/04/01 04:39:04;;;;;;;7.32;2.70;;;;;;;;;;5045582;28;20119;-58
2023/04/01 04:41:30;;;;;;;7.22;2.60;;;;;;;;;;5044465;28;20052;-59
2023/04/01 04:43:58;;;;;;;3.90;2.40;;;;;;;;;;5045322;28;20047;-58
2023/04/01 04:46:24;;;;;;;4.97;2.50;;;;;;;;;;5045592;28;20098;-59
2023/04/01 04:48:51;;;;;;;6.03;3.17;;;;;;;;;;5043883;28;20693;-59
2023/04/01 04:51:17;;;;;;;8.30;2.65;;;;;;;;;;5045514;28;20045;-58
2023/04/01 04:53:44;;;;;;;5.00;2.45;;;;;;;;;;5044907;28;20517;-58
2023/04/01 04:56:10;;;;;;;4.05;2.20;;;;;;;;;;5043910;28;20041;-59
2023/04/01 04:58:37;;;;;;;5.90;2.83;;;;;;;;;;5045240;28;20036;-58
2023/04/01 05:01:07;;;;;;;5.80;2.40;;;;;;;;;;5044991;28;20037;-58
2023/04/01 05:03:33;;;;;;;5.47;2.45;;;;;;;;;;5045428;28;20084;-58
2023/04/01 05:05:59;;;;;;;4.35;2.10;;;;;;;;;;5048578;28;20072;-58
2023/04/01 05:08:25;;;;;;;4.55;2.40;;;;;;;;;;5048162;28;20036;-60
2023/04/01 05:10:51;;;;;;;8.10;2.67;;;;;;;;;;5038505;28;20041;-58
2023/04/01 05:13:18;;;;;;;4.38;2.40;;;;;;;;;;5036433;28;20094;-58
2023/04/01 05:15:44;;;;;;;5.50;2.45;;;;;;;;;;5034030;28;20049;-58
2023/04/01 05:18:10;;;;;;;6.03;2.53;;;;;;;;;;5040188;28;20048;-57
2023/04/01 05:20:36;;;;;;;5.15;2.05;;;;;;;;;;5035833;28;20399;-57
2023/04/01 05:23:02;;;;;;;6.43;2.25;;;;;;;;;;5043425;28;20065;-59
2023/04/01 05:25:29;;;;;;;5.63;2.50;;;;;;;;;;5039176;28;20056;-59
2023/04/01 05:27:55;;;;;;;8.10;2.55;;;;;;;;;;5034116;28;20076;-59
2023/04/01 05:30:21;;;;;;;5.05;2.22;;;;;;;;;;5044652;28;20113;-58
2023/04/01 05:32:47;;;;;;;4.80;2.47;;;;;;;;;;5047158;28;20052;-61
2023/04/01 05:35:13;;;;;;;5.07;2.60;;;;;;;;;;5037332;28;20045;-58
2023/04/01 05:37:39;;;;;;;4.78;2.65;;;;;;;;;;5031024;28;20081;-62
2023/04/01 05:40:06;;;;;;;4.85;2.55;;;;;;;;;;5030898;28;20081;-62
2023/04/01 05:42:32;;;;;;;4.68;2.70;;;;;;;;;;5032524;28;20041;-62
2023/04/01 05:44:58;;;;;;;5.60;3.00;;;;;;;;;;5030996;28;20618;-62
2023/04/01 05:47:24;;;;;;;6.28;3.25;;;;;;;;;;5033514;28;20045;-62
2023/04/01 05:49:50;;;;;;;6.22;3.00;;;;;;;;;;5035956;28;20492;-62
2023/04/01 05:52:17;;;;;;;6.88;3.10;;;;;;;;;;5043854;28;20044;-60
2023/04/01 05:54:43;;;;;;;7.35;3.30;;;;;;;;;;5037257;28;20045;-59
2023/04/01 05:57:09;;;;;;;7.65;4.13;;;;;;;;;;5039566;28;20048;-60
2023/04/01 05:59:35;;;;;;;7.00;3.83;;;;;;;;;;5042164;28;20053;-58
2023/04/01 06:02:02;;;;;;;14.15;9.82;;;;;;;;;;5046191;28;20051;-59
2023/04/01 06:04:32;;;;;;;10.05;5.93;;;;;;;;;;5050841;28;20045;-60
2023/04/01 06:06:58;;;;;;;12.68;7.53;;;;;;;;;;5047770;28;20394;-60
2023/04/01 06:09:30;;;;;;;9.15;5.60;;;;;;;;;;5047979;28;20131;-59
2023/04/01 06:12:10;;;;;;;10.82;7.50;;;;;;;;;;5048158;28;20053;-59
2023/04/01 06:14:44;;;;;;;9.85;6.15;;;;;;;;;;5048103;28;20049;-59
2023/04/01 06:17:10;;;;;;;10.82;6.22;;;;;;;;;;5043142;28;20057;-59
2023/04/01 06:19:36;;;;;;;9.45;5.22;;;;;;;;;;5038136;28;20575;-59
2023/04/01 06:22:20;;;;;;;8.60;5.32;;;;;;;;;;5034443;28;20041;-59
2023/04/01 06:24:46;;;;;;;7.15;4.53;;;;;;;;;;5037753;28;20688;-60
2023/04/01 06:27:12;;;;;;;11.50;6.57;;;;;;;;;;5036518;28;20514;-60
2023/04/01 06:29:49;;;;;;;9.15;5.20;;;;;;;;;;5039274;28;20032;-61
2023/04/01 06:32:18;;;;;;;15.27;8.02;;;;;;;;;;5039449;28;20037;-60
2023/04/01 06:34:55;;;;;;;20.10;8.10;;;;;;;;;;5043486;28;20060;-61
2023/04/01 06:37:22;;;;;;;6.90;3.72;;;;;;;;;;5040708;28;20133;-60
2023/04/01 06:39:59;;;;;;;8.73;3.47;;;;;;;;;;5045460;28;20044;-60
2023/04/01 06:42:34;;;;;;;7.03;3.80;;;;;;;;;;5046562;28;20408;-61
2023/04/01 06:45:15;;;;;;;7.60;5.00;;;;;;;;;;5050818;28;20129;-59
2023/04/01 06:47:53;;;;;;;15.00;11.63;;;;;;;;;;5037900;28;20124;-59
2023/04/01 06:50:29;;;;;;;11.25;8.32;;;;;;;;;;5044814;28;20060;-60
2023/04/01 06:52:57;;;;;;;9.93;6.93;;;;;;;;;;5039847;28;20482;-59
2023/04/01 06:55:37;;;;;;;7.40;2.90;;;;;;;;;;5041505;28;20398;-59
2023/04/01 06:58:05;;;;;;;5.65;3.55;;;;;;;;;;5044154;28;20401;-59
2023/04/01 07:00:33;;;;;;;4.72;2.45;;;;;;;;;;5045596;28;20128;-60
2023/04/01 07:03:05;;;;;;;4.68;1.95;;;;;;;;;;5039561;28;20026;-61
2023/04/01 07:05:32;;;;;;;5.60;3.20;;;;;;;;;;5042457;28;20041;-60
2023/04/01 07:08:01;;;;;;;6.75;4.80;;;;;;;;;;5040808;28;20033;-59
2023/04/01 07:10:31;;;;;;;9.23;5.25;;;;;;;;;;5041904;28;20037;-60
2023/04/01 07:12:59;;;;;;;6.78;4.05;;;;;;;;;;5045469;28;20057;-59
2023/04/01 07:15:27;;;;;;;12.70;7.05;;;;;;;;;;5039793;28;20084;-60
2023/04/01 07:17:59;;;;;;;6.30;2.63;;;;;;;;;;5043874;28;20129;-59
2023/04/01 07:20:28;;;;;;;7.70;4.65;;;;;;;;;;5045330;28;20040;-62
2023/04/01 07:22:54;;;;;;;;;;;;;;;;;;5044887;28;21324;-59
2023/04/01 07:25:25;;;;;;;5.72;3.10;;;;;;;;;;5042049;28;20356;-63
2023/04/01 07:27:52;;;;;;;9.05;3.63;;;;;;;;;;5043281;28;20053;-58
2023/04/01 07:30:20;;;;;;;14.90;4.50;;;;;;;;;;5043353;28;20072;-57
2023/04/01 07:32:50;;;;;;;6.30;2.97;;;;;;;;;;5043715;28;20043;-58
2023/04/01 07:35:22;;;;;;;8.60;3.88;;;;;;;;;;5044984;28;20041;-57
2023/04/01 07:37:57;;;;;;;7.82;3.75;;;;;;;;;;5044586;28;20152;-58
2023/04/01 07:40:37;;;;;;;10.43;4.28;;;;;;;;;;5043181;28;20048;-57
2023/04/01 07:43:12;;;;;;;9.23;4.72;;;;;;;;;;5042733;28;20052;-57
2023/04/01 07:45:43;;;;;;;37.50;15.70;;;;;;;;;;5042824;28;20124;-58
2023/04/01 07:48:20;;;;;;;30.27;11.30;;;;;;;;;;5041532;28;20124;-57
2023/04/01 07:50:47;;;;;;;89.55;26.40;;;;;;;;;;5044195;28;20044;-58
2023/04/01 07:53:20;;;;;;;50.15;19.38;;;;;;;;;;5042472;28;20045;-57
2023/04/01 07:55:53;;;;;;;28.83;14.05;;;;;;;;;;5042774;28;20047;-56
2023/04/01 07:58:20;;;;;;;43.83;23.73;;;;;;;;;;5042211;28;20044;-57
2023/04/01 08:00:57;;;;;;;14.23;7.65;;;;;;;;;;5046552;28;20033;-56
2023/04/01 08:03:32;;;;;;;10.25;5.78;;;;;;;;;;5030644;28;20040;-56
2023/04/01 08:06:11;;;;;;;10.75;5.80;;;;;;;;;;5043867;28;20036;-58
2023/04/01 08:08:44;;;;;;;10.50;5.60;;;;;;;;;;5040996;28;20734;-57
2023/04/01 08:11:11;;;;;;;11.70;5.50;;;;;;;;;;5032516;28;20602;-57
2023/04/01 08:13:41;;;;;;;13.02;8.65;;;;;;;;;;5041128;28;20049;-58
2023/04/01 08:16:21;;;;;;;11.10;5.72;;;;;;;;;;5042857;28;20047;-59
2023/04/01 08:18:48;;;;;;;10.00;5.85;;;;;;;;;;5039475;28;20042;-57
2023/04/01 08:21:21;;;;;;;10.68;5.05;;;;;;;;;;5042892;28;20029;-57
2023/04/01 08:23:49;;;;;;;12.30;5.47;;;;;;;;;;5039698;28;20041;-57
2023/04/01 08:26:15;;;;;;;9.98;5.45;;;;;;;;;;5042714;28;20048;-57
2023/04/01 08:28:47;;;;;;;9.38;5.28;;;;;;;;;;5043261;28;20052;-57
2023/04/01 08:31:16;;;;;;;11.00;7.55;;;;;;;;;;5042849;28;20041;-54
2023/04/01 08:33:44;;;;;;;11.13;5.78;;;;;;;;;;5042736;28;20056;-57
2023/04/01 08:36:20;;;;;;;9.63;5.40;;;;;;;;;;5041344;28;20335;-57
2023/04/01 08:38:58;;;;;;;8.60;5.07;;;;;;;;;;5043921;28;20048;-58
2023/04/01 08:41:45;;;;;;;10.00;4.03;;;;;;;;;;5043678;28;20045;-57
2023/04/01 08:44:11;;;;;;;7.43;4.13;;;;;;;;;;5042939;28;20044;-57
2023/04/01 08:46:42;;;;;;;5.10;2.63;;;;;;;;;;5045878;28;20483;-58
2023/04/01 08:49:13;;;;;;;3.45;1.70;;;;;;;;;;5042906;28;20103;-58
2023/04/01 08:51:44;;;;;;;4.70;1.50;;;;;;;;;;5036753;28;20041;-58
2023/04/01 08:54:11;;;;;;;4.15;2.08;;;;;;;;;;5037822;28;20048;-57
2023/04/01 08:56:42;;;;;;;7.32;2.00;;;;;;;;;;5033026;28;20049;-57
2023/04/01 08:59:17;;;;;;;3.83;2.20;;;;;;;;;;5037076;28;20033;-57
2023/04/01 09:01:43;;;;;;;4.63;2.35;;;;;;;;;;5032916;28;20085;-57
2023/04/01 09:04:26;;;;;;;4.28;2.10;;;;;;;;;;5033144;28;20108;-58
2023/04/01 09:07:00;;;;;;;4.85;2.17;;;;;;;;;;5046614;28;20045;-57
2023/04/01 09:09:38;;;;;;;4.70;2.15;;;;;;;;;;5047825;28;21028;-58
2023/04/01 09:12:15;;;;;;;4.97;2.88;;;;;;;;;;5047311;28;20048;-57
2023/04/01 09:14:42;;;;;;;5.60;2.92;;;;;;;;;;5039107;28;20086;-57
2023/04/01 09:17:21;;;;;;;6.85;3.75;;;;;;;;;;5042298;28;20049;-57
2023/04/01 09:19:48;;;;;;;12.75;8.05;;;;;;;;;;5045201;28;20079;-58
2023/04/01 09:22:20;;;;;;;19.80;7.72;;;;;;;;;;5046948;28;20033;-57
2023/04/01 09:24:57;;;;;;;13.82;8.52;;;;;;;;;;5036186;28;20048;-57
2023/04/01 09:27:35;;;;;;;10.10;5.43;;;;;;;;;;5043794;28;20033;-57
2023/04/01 09:30:20;;;;;;;12.20;6.97;;;;;;;;;;5046220;28;20063;-57
2023/04/01 09:32:49;;;;;;;14.45;9.23;;;;;;;;;;5046087;28;20083;-57
2023/04/01 09:35:21;;;;;;;21.35;12.25;;;;;;;;;;5045512;28;20059;-58
2023/04/01 09:37:48;;;;;;;35.63;22.67;;;;;;;;;;5045267;28;20510;-58
2023/04/01 09:40:18;;;;;;;18.92;12.50;;;;;;;;;;5033320;28;20490;-57
2023/04/01 09:42:49;;;;;;;19.77;11.85;;;;;;;;;;5036313;28;20041;-57
2023/04/01 09:45:28;;;;;;;13.88;7.47;;;;;;;;;;5043426;28;20045;-57
2023/04/01 09:48:01;;;;;;;15.52;8.73;;;;;;;;;;5041574;28;20042;-56
2023/04/01 09:50:35;;;;;;;28.75;17.65;;;;;;;;;;5036794;28;20120;-57
2023/04/01 09:53:01;;;;;;;17.25;10.18;;;;;;;;;;5041364;28;20088;-56
2023/04/01 09:55:49;;;;;;;18.48;10.82;;;;;;;;;;5035793;28;20407;-57
2023/04/01 09:58:15;;;;;;;;;;;;;;;;;;5045267;28;20122;-56
2023/04/01 10:01:00;;;;;;;29.15;15.90;;;;;;;;;;5036033;28;20259;-57
2023/04/01 10:03:26;;;;;;;15.32;8.48;;;;;;;;;;5043167;28;20453;-57
2023/04/01 10:06:05;;;;;;;24.83;14.20;;;;;;;;;;5043014;28;20741;-56
2023/04/01 10:08:32;;;;;;;19.70;10.50;;;;;;;;;;5042509;28;20120;-54
2023/04/01 10:11:13;;;;;;;93.40;71.30;;;;;;;;;;5039231;28;20380;-56
2023/04/01 10:14:02;;;;;;;14.73;10.10;;;;;;;;;;5036430;28;20550;-57
2023/04/01 10:16:39;;;;;;;12.73;8.27;;;;;;;;;;5046579;28;20041;-56
2023/04/01 10:19:24;;;;;;;12.52;7.20;;;;;;;;;;5046081;28;20051;-55
2023/04/01 10:22:00;;;;;;;12.00;7.32;;;;;;;;;;5045941;28;20124;-57
2023/04/01 10:24:45;;;;;;;14.88;9.27;;;;;;;;;;5045470;28;20094;-58
2023/04/01 10:27:11;;;;;;;16.73;12.50;;;;;;;;;;5045296;28;20135;-57
2023/04/01 10:29:55;;;;;;;15.00;8.45;;;;;;;;;;5044013;28;20099;-58
2023/04/01 10:32:40;;;;;;;20.27;10.57;;;;;;;;;;5044106;28;20045;-57
2023/04/01 10:35:06;;;;;;;11.93;6.35;;;;;;;;;;5045086;28;20049;-57
2023/04/01 10:37:41;;;;;;;11.13;6.10;;;;;;;;;;5043520;28;20040;-57
2023/04/01 10:40:07;;;;;;;10.90;5.85;;;;;;;;;;5045621;28;20056;-57
2023/04/01 10:42:43;;;;;;;9.45;5.22;;;;;;;;;;5045480;28;20048;-56
2023/04/01 10:45:17;;;;;;;9.85;5.10;;;;;;;;;;5035193;28;20491;-57
2023/04/01 10:47:43;;;;;;;6.50;4.00;;;;;;;;;;5029107;28;20045;-56
2023/04/01 10:50:18;;;;;;;6.40;3.58;;;;;;;;;;5030027;28;20173;-56
2023/04/01 10:52:47;;;;;;;5.70;3.33;;;;;;;;;;5035087;28;20619;-56
2023/04/01 10:55:37;;;;;;;6.53;4.47;;;;;;;;;;5039605;28;20045;-57
2023/04/01 10:58:20;;;;;;;6.78;3.53;;;;;;;;;;5029747;28;20153;-57
2023/04/01 11:00:50;;;;;;;8.25;4.65;;;;;;;;;;5033742;28;20055;-58
2023/04/01 11:03:23;;;;;;;9.80;5.10;;;;;;;;;;5041549;28;20045;-59
2023/04/01 11:05:59;;;;;;;16.60;13.23;;;;;;;;;;5034900;28;20097;-58
2023/04/01 11:08:45;;;;;;;6.65;4.47;;;;;;;;;;5036403;28;20041;-59
2023/04/01 11:11:31;;;;;;;6.70;4.75;;;;;;;;;;5033564;28;20049;-58
2023/04/01 11:14:13;;;;;;;5.80;3.40;;;;;;;;;;5038286;28;20157;-58
2023/04/01 11:16:53;;;;;;;7.22;5.32;;;;;;;;;;5037670;28;20571;-58
2023/04/01 11:19:33;;;;;;;7.93;5.75;;;;;;;;;;5037578;28;20033;-58
2023/04/01 11:22:09;;;;;;;9.32;5.28;;;;;;;;;;5042261;28;20048;-58
2023/04/01 11:24:38;;;;;;;5.80;4.38;;;;;;;;;;5035840;28;20453;-58
2023/04/01 11:27:16;;;;;;;7.80;5.82;;;;;;;;;;5023819;28;20384;-58
2023/04/01 11:29:49;;;;;;;6.68;4.40;;;;;;;;;;5025626;28;20045;-58
2023/04/01 11:32:28;;;;;;;8.40;5.38;;;;;;;;;;5028816;28;20053;-58
2023/04/01 11:35:14;;;;;;;6.35;4.20;;;;;;;;;;5028499;28;20065;-58
2023/04/01 11:37:43;;;;;;;8.13;6.22;;;;;;;;;;5029343;28;20102;-58
2023/04/01 11:40:12;;;;;;;6.43;3.72;;;;;;;;;;5029880;28;20033;-59
2023/04/01 11:42:42;;;;;;;7.43;5.38;;;;;;;;;;5036940;28;20049;-58
2023/04/01 11:45:14;;;;;;;5.18;3.50;;;;;;;;;;5038652;28;20491;-59
2023/04/01 11:47:49;;;;;;;7.38;5.90;;;;;;;;;;5038259;28;20203;-58
2023/04/01 11:50:21;;;;;;;3.95;2.70;;;;;;;;;;5036632;28;20941;-58
2023/04/01 11:52:51;;;;;;;4.78;3.15;;;;;;;;;;5040777;28;20060;-58
2023/04/01 11:55:31;;;;;;;9.00;6.63;;;;;;;;;;5040527;28;20068;-59
2023/04/01 11:57:57;;;;;;;3.55;2.25;;;;;;;;;;5028276;28;20056;-58
2023/04/01 12:00:31;;;;;;;8.40;5.53;;;;;;;;;;5024675;28;20495;-58
2023/04/01 12:03:14;;;;;;;3.97;2.65;;;;;;;;;;5027855;28;20914;-58
2023/04/01 12:05:40;;;;;;;10.45;7.85;;;;;;;;;;5033868;28;20071;-58
2023/04/01 12:08:12;;;;;;;4.60;3.15;;;;;;;;;;5036577;28;20570;-59
2023/04/01 12:10:40;;;;;;;3.85;3.00;;;;;;;;;;5036563;28;20056;-58
2023/04/01 12:13:06;;;;;;;;;;;;;;;;;;5040436;28;20776;-57
2023/04/01 12:15:41;;;;;;;4.05;2.70;;;;;;;;;;5038229;28;20363;-58
2023/04/01 12:18:27;;;;;;;4.30;2.20;;;;;;;;;;5042722;28;20053;-58
2023/04/01 12:20:55;;;;;;;4.45;3.25;;;;;;;;;;5042701;28;20095;-58
2023/04/01 12:23:29;;;;;;;4.05;2.63;;;;;;;;;;5028826;28;20042;-58
2023/04/01 12:26:04;;;;;;;8.20;6.22;;;;;;;;;;5025019;28;20046;-58
2023/04/01 12:28:31;;;;;;;6.53;4.03;;;;;;;;;;5028179;28;20051;-57
2023/04/01 12:31:04;;;;;;;3.08;2.30;;;;;;;;;;5027100;28;20127;-60
2023/04/01 12:33:39;;;;;;;3.00;2.20;;;;;;;;;;5031043;28;20037;-58
2023/04/01 12:36:07;;;;;;;4.28;2.25;;;;;;;;;;5035489;28;20095;-59
2023/04/01 12:38:33;;;;;;;3.63;2.50;;;;;;;;;;5033433;28;20048;-58
2023/04/01 12:41:10;;;;;;;4.65;2.92;;;;;;;;;;5035850;28;20037;-58
2023/04/01 12:43:44;;;;;;;4.55;2.92;;;;;;;;;;5035838;28;20052;-58
2023/04/01 12:46:16;;;;;;;4.15;3.00;;;;;;;;;;5028591;28;20180;-57
2023/04/01 12:48:58;;;;;;;16.67;10.48;;;;;;;;;;5035694;28;20041;-58
2023/04/01 12:51:42;;;;;;;10.40;7.47;;;;;;;;;;5028100;28;20091;-60
2023/04/01 12:54:19;;;;;;;11.10;7.07;;;;;;;;;;5029061;28;20051;-58
2023/04/01 12:56:46;;;;;;;16.45;10.73;;;;;;;;;;5030502;28;20081;-57
2023/04/01 12:59:19;;;;;;;8.05;5.57;;;;;;;;;;5028695;28;20049;-58
2023/04/01 13:02:01;;;;;;;8.80;6.05;;;;;;;;;;5025903;28;20084;-58
2023/04/01 13:04:30;;;;;;;8.40;4.00;;;;;;;;;;5027025;28;20040;-58
2023/04/01 13:07:17;;;;;;;5.25;3.67;;;;;;;;;;5037900;28;20041;-58
2023/04/01 13:09:58;;;;;;;5.15;3.60;;;;;;;;;;5040266;28;20043;-58
2023/04/01 13:12:47;;;;;;;7.15;5.28;;;;;;;;;;5032784;28;20133;-58
2023/04/01 13:15:13;;;;;;;7.43;5.47;;;;;;;;;;5039096;28;20049;-57
2023/04/01 13:17:51;;;;;;;14.77;11.07;;;;;;;;;;5035092;28;20061;-58
2023/04/01 13:20:17;;;;;;;10.93;7.63;;;;;;;;;;5034876;28;20049;-58
2023/04/01 13:22:57;;;;;;;7.78;5.55;;;;;;;;;;5035926;28;20692;-57
2023/04/01 13:25:28;;;;;;;9.18;6.68;;;;;;;;;;5035434;28;20078;-57
2023/04/01 13:28:00;;;;;;;10.98;8.27;;;;;;;;;;5033429;28;20054;-57
2023/04/01 13:30:33;;;;;;;9.10;6.03;;;;;;;;;;5027457;28;20037;-57
2023/04/01 13:33:07;;;;;;;6.45;4.72;;;;;;;;;;5034562;28;20055;-58
2023/04/01 13:35:39;;;;;;;7.35;4.25;;;;;;;;;;5030990;28;20041;-58
2023/04/01 13:38:21;;;;;;;7.07;4.75;;;;;;;;;;5028970;28;20069;-58
2023/04/01 13:41:06;;;;;;;5.63;3.60;;;;;;;;;;5030706;28;20509;-58
2023/04/01 13:43:37;;;;;;;3.65;2.25;;;;;;;;;;5035402;28;20045;-56
2023/04/01 13:46:04;;;;;;;3.35;2.33;;;;;;;;;;5031850;28;20044;-58
2023/04/01 13:48:35;;;;;;;4.05;2.63;;;;;;;;;;5034465;28;20083;-57
2023/04/01 13:51:08;;;;;;;2.53;1.95;;;;;;;;;;5037000;28;20048;-57
2023/04/01 13:53:41;;;;;;;3.72;2.55;;;;;;;;;;5033480;28;20049;-58
2023/04/01 13:56:15;;;;;;;2.40;1.63;;;;;;;;;;5029794;28;20058;-59
2023/04/01 13:58:41;;;;;;;4.65;2.38;;;;;;;;;;5036430;28;20057;-58
2023/04/01 14:01:11;;;;;;;4.70;3.15;;;;;;;;;;5028105;28;20045;-58
2023/04/01 14:03:46;;;;;;;8.00;4.40;;;;;;;;;;5041388;28;20052;-57
2023/04/01 14:06:18;;;;;;;4.30;2.92;;;;;;;;;;5041147;28;20140;-57
2023/04/01 14:09:12;;;;;;;21.02;11.38;;;;;;;;;;5043289;28;20045;-57
2023/04/01 14:11:45;;;;;;;7.28;4.05;;;;;;;;;;5043627;28;20080;-57
2023/04/01 14:14:19;;;;;;;15.57;8.25;;;;;;;;;;5031268;28;20045;-57
2023/04/01 14:17:00;;;;;;;25.02;11.25;;;;;;;;;;5038622;28;20041;-56
2023/04/01 14:19:28;;;;;;;18.23;10.15;;;;;;;;;;5038171;28;20102;-57
2023/04/01 14:22:00;;;;;;;4.60;2.50;;;;;;;;;;5027082;28;20068;-56
2023/04/01 14:24:33;;;;;;;13.60;6.80;;;;;;;;;;5038540;28;20163;-57
2023/04/01 14:27:00;;;;;;;23.15;12.70;;;;;;;;;;5025582;28;20049;-56
2023/04/01 14:29:35;;;;;;;5.80;4.22;;;;;;;;;;5026554;28;20049;-57
2023/04/01 14:32:12;;;;;;;5.03;3.58;;;;;;;;;;5029559;28;20099;-56
2023/04/01 14:34:40;;;;;;;4.40;2.35;;;;;;;;;;5039802;28;20056;-58
2023/04/01 14:37:19;;;;;;;6.15;3.75;;;;;;;;;;5031108;28;20479;-57
2023/04/01 14:39:53;;;;;;;18.42;10.02;;;;;;;;;;5033765;28;20041;-57
2023/04/01 14:42:23;;;;;;;11.60;6.28;;;;;;;;;;5039851;28;20045;-57
2023/04/01 14:44:49;;;;;;;16.63;9.25;;;;;;;;;;5034814;28;20052;-58
2023/04/01 14:47:15;;;;;;;5.05;3.33;;;;;;;;;;5037505;28;20037;-58
2023/04/01 14:49:43;;;;;;;171.45;84.53;;;;;;;;;;5045130;28;20049;-58
2023/04/01 14:52:12;;;;;;;47.58;38.40;;;;;;;;;;5046287;28;20448;-59
2023/04/01 14:54:39;;;;;;;5.30;4.20;;;;;;;;;;5045105;28;20410;-60
2023/04/01 14:57:12;;;;;;;4.80;3.38;;;;;;;;;;5046495;28;20084;-58
2023/04/01 14:59:52;;;;;;;2.88;2.10;;;;;;;;;;5045521;28;20049;-58
2023/04/01 15:02:32;;;;;;;9.52;8.07;;;;;;;;;;5046809;28;20415;-58